createdAt,value
2019-02-06T00:00:26.350Z,1010.7
2019-02-06T00:01:37.281Z,1010.7
2019-02-06T00:02:47.949Z,1010.73
2019-02-06T00:03:58.667Z,1010.7
2019-02-06T00:05:13.974Z,1010.73
2019-02-06T00:06:26.012Z,1010.7
2019-02-06T00:07:36.554Z,1010.74
2019-02-06T00:08:46.892Z,1010.73
2019-02-06T00:09:57.195Z,1010.77
2019-02-06T00:11:07.102Z,1010.72
2019-02-06T00:12:17.393Z,1010.76
2019-02-06T00:13:27.599Z,1010.73
2019-02-06T00:14:37.897Z,1010.72
2019-02-06T00:15:48.104Z,1010.72
2019-02-06T00:16:58.345Z,1010.7
2019-02-06T00:18:08.533Z,1010.73
2019-02-06T00:19:18.578Z,1010.66
2019-02-06T00:20:28.722Z,1010.66
2019-02-06T00:21:38.823Z,1010.64
2019-02-06T00:22:48.645Z,1010.63
2019-02-06T00:23:58.744Z,1010.65
2019-02-06T00:25:08.838Z,1010.63
2019-02-06T00:26:18.928Z,1010.62
2019-02-06T00:27:28.750Z,1010.64
2019-02-06T00:28:38.599Z,1010.63
2019-02-06T00:29:48.675Z,1010.6
2019-02-06T00:30:58.237Z,1010.62
2019-02-06T00:32:08.200Z,1010.59
2019-02-06T00:33:18.006Z,1010.56
2019-02-06T00:34:28.082Z,1010.58
2019-02-06T00:35:37.662Z,1010.6
2019-02-06T00:36:47.793Z,1010.57
2019-02-06T00:37:57.852Z,1010.52
2019-02-06T00:39:10.809Z,1010.52
2019-02-06T00:40:20.895Z,1010.52
2019-02-06T00:41:30.702Z,1010.57
2019-02-06T00:42:40.505Z,1010.61
2019-02-06T00:43:50.595Z,1010.62
2019-02-06T00:44:59.925Z,1010.66
2019-02-06T00:46:09.988Z,1010.68
2019-02-06T00:47:20.072Z,1010.65
2019-02-06T00:48:30.190Z,1010.62
2019-02-06T00:49:40.306Z,1010.58
2019-02-06T00:50:50.374Z,1010.64
2019-02-06T00:52:00.443Z,1010.61
2019-02-06T00:53:10.524Z,1010.64
2019-02-06T00:54:20.377Z,1010.68
2019-02-06T00:55:30.207Z,1010.71
2019-02-06T00:56:40.419Z,1010.68
2019-02-06T00:57:50.240Z,1010.7
2019-02-06T00:59:00.303Z,1010.71
2019-02-06T01:00:10.376Z,1010.75
2019-02-06T01:01:21.245Z,1010.7
2019-02-06T01:02:31.315Z,1010.66
2019-02-06T01:03:41.400Z,1010.69
2019-02-06T01:04:51.497Z,1010.67
2019-02-06T01:06:01.643Z,1010.68
2019-02-06T01:07:11.739Z,1010.62
2019-02-06T01:08:21.892Z,1010.6
2019-02-06T01:09:32.343Z,1010.59
2019-02-06T01:10:42.220Z,1010.6
2019-02-06T01:11:52.955Z,1010.65
2019-02-06T01:13:03.326Z,1010.62
2019-02-06T01:14:13.980Z,1010.62
2019-02-06T01:15:24.652Z,1010.65
2019-02-06T01:16:35.545Z,1010.64
2019-02-06T01:17:46.418Z,1010.66
2019-02-06T01:18:57.174Z,1010.62
2019-02-06T01:20:07.500Z,1010.65
2019-02-06T01:21:17.289Z,1010.65
2019-02-06T01:22:27.387Z,1010.66
2019-02-06T01:23:37.625Z,1010.7
2019-02-06T01:24:47.701Z,1010.65
2019-02-06T01:25:57.528Z,1010.65
2019-02-06T01:27:07.605Z,1010.66
2019-02-06T01:28:17.682Z,1010.67
2019-02-06T01:29:27.813Z,1010.68
2019-02-06T01:30:37.906Z,1010.7
2019-02-06T01:31:47.712Z,1010.73
2019-02-06T01:32:57.788Z,1010.7
2019-02-06T01:34:08.854Z,1010.7
2019-02-06T01:35:18.931Z,1010.68
2019-02-06T01:36:28.233Z,1010.64
2019-02-06T01:37:38.317Z,1010.65
2019-02-06T01:38:48.420Z,1010.63
2019-02-06T01:39:58.609Z,1010.64
2019-02-06T01:41:08.439Z,1010.66
2019-02-06T01:42:18.591Z,1010.71
2019-02-06T01:43:28.654Z,1010.69
2019-02-06T01:44:38.452Z,1010.67
2019-02-06T01:45:48.138Z,1010.7
2019-02-06T01:46:58.059Z,1010.67
2019-02-06T01:48:08.160Z,1010.68
2019-02-06T01:49:17.968Z,1010.67
2019-02-06T01:50:28.024Z,1010.73
2019-02-06T01:51:37.856Z,1010.71
2019-02-06T01:52:47.988Z,1010.76
2019-02-06T01:53:58.284Z,1010.73
2019-02-06T01:55:08.115Z,1010.68
2019-02-06T01:56:18.190Z,1010.73
2019-02-06T01:57:28.284Z,1010.75
2019-02-06T01:58:38.343Z,1010.73
2019-02-06T01:59:48.419Z,1010.74
2019-02-06T02:00:58.243Z,1010.68
2019-02-06T02:02:08.970Z,1010.68
2019-02-06T02:03:18.585Z,1010.66
2019-02-06T02:04:28.657Z,1010.65
2019-02-06T02:05:38.729Z,1010.66
2019-02-06T02:06:48.805Z,1010.61
2019-02-06T02:07:58.883Z,1010.66
2019-02-06T02:09:08.951Z,1010.63
2019-02-06T02:10:18.827Z,1010.68
2019-02-06T02:11:28.419Z,1010.67
2019-02-06T02:12:38.481Z,1010.69
2019-02-06T02:13:48.552Z,1010.65
2019-02-06T02:14:58.416Z,1010.65
2019-02-06T02:16:09.851Z,1010.65
2019-02-06T02:17:19.921Z,1010.65
2019-02-06T02:18:29.778Z,1010.66
2019-02-06T02:19:39.587Z,1010.67
2019-02-06T02:20:49.402Z,1010.65
2019-02-06T02:21:59.265Z,1010.61
2019-02-06T02:23:09.347Z,1010.62
2019-02-06T02:24:18.944Z,1010.58
2019-02-06T02:25:29.018Z,1010.61
2019-02-06T02:26:38.849Z,1010.61
2019-02-06T02:27:48.897Z,1010.65
2019-02-06T02:28:58.974Z,1010.64
2019-02-06T02:30:09.201Z,1010.64
2019-02-06T02:31:19.738Z,1010.63
2019-02-06T02:32:31.589Z,1010.66
2019-02-06T02:33:42.324Z,1010.56
2019-02-06T02:34:52.753Z,1010.62
2019-02-06T02:36:14.210Z,1010.63
2019-02-06T02:37:25.329Z,1010.66
2019-02-06T02:38:35.390Z,1010.64
2019-02-06T02:39:45.460Z,1010.67
2019-02-06T02:40:55.271Z,1010.6
2019-02-06T02:42:05.357Z,1010.58
2019-02-06T02:43:15.203Z,1010.61
2019-02-06T02:44:25.278Z,1010.6
2019-02-06T02:45:35.335Z,1010.63
2019-02-06T02:46:45.120Z,1010.61
2019-02-06T02:47:55.192Z,1010.54
2019-02-06T02:49:05.033Z,1010.56
2019-02-06T02:50:14.917Z,1010.58
2019-02-06T02:51:24.729Z,1010.55
2019-02-06T02:52:34.713Z,1010.6
2019-02-06T02:53:44.533Z,1010.64
2019-02-06T02:54:54.622Z,1010.63
2019-02-06T02:56:04.898Z,1010.62
2019-02-06T02:57:14.738Z,1010.6
2019-02-06T02:58:24.564Z,1010.69
2019-02-06T02:59:34.651Z,1010.68
2019-02-06T03:00:44.737Z,1010.65
2019-02-06T03:01:54.804Z,1010.7
2019-02-06T03:34:25.054Z,1010.89
2019-02-06T03:35:35.148Z,1010.9
2019-02-06T03:36:45.242Z,1010.91
2019-02-06T03:37:55.035Z,1010.88
2019-02-06T03:39:05.486Z,1010.94
2019-02-06T03:40:15.581Z,1011.03
2019-02-06T03:41:25.641Z,1011
2019-02-06T03:42:35.713Z,1011.01
2019-02-06T03:43:45.563Z,1011.03
2019-02-06T03:44:55.978Z,1011.03
2019-02-06T03:46:06.167Z,1011.06
2019-02-06T03:47:16.838Z,1011.07
2019-02-06T03:48:27.340Z,1011.08
2019-02-06T03:49:38.076Z,1011.1
2019-02-06T03:50:51.068Z,1011.15
2019-02-06T03:52:01.741Z,1011.18
2019-02-06T03:53:12.407Z,1011.21
2019-02-06T03:54:22.736Z,1011.23
2019-02-06T03:55:32.858Z,1011.25
2019-02-06T03:56:43.039Z,1011.24
2019-02-06T03:57:53.119Z,1011.26
2019-02-06T03:59:02.921Z,1011.24
2019-02-06T04:00:12.578Z,1011.27
2019-02-06T04:01:23.171Z,1011.3
2019-02-06T04:02:33.243Z,1011.3
2019-02-06T04:03:43.322Z,1011.3
2019-02-06T04:04:53.399Z,1011.34
2019-02-06T04:06:03.497Z,1011.3
2019-02-06T04:07:13.577Z,1011.31
2019-02-06T04:08:23.713Z,1011.3
2019-02-06T04:09:33.807Z,1011.31
2019-02-06T04:10:43.901Z,1011.33
2019-02-06T04:11:53.972Z,1011.29
2019-02-06T04:13:04.151Z,1011.35
2019-02-06T04:14:14.227Z,1011.31
2019-02-06T04:15:24.406Z,1011.32
2019-02-06T04:16:34.473Z,1011.31
2019-02-06T04:17:44.058Z,1011.38
2019-02-06T04:18:57.453Z,1011.34
2019-02-06T04:20:07.254Z,1011.34
2019-02-06T04:21:17.316Z,1011.32
2019-02-06T04:22:27.373Z,1011.34
2019-02-06T04:23:37.207Z,1011.38
2019-02-06T04:24:47.030Z,1011.38
2019-02-06T04:25:59.440Z,1011.34
2019-02-06T04:27:09.317Z,1011.41
2019-02-06T04:28:19.377Z,1011.4
2019-02-06T04:29:29.450Z,1011.41
2019-02-06T04:30:39.527Z,1011.37
2019-02-06T04:31:49.371Z,1011.38
2019-02-06T04:32:59.501Z,1011.36
2019-02-06T04:34:09.076Z,1011.35
2019-02-06T04:35:18.977Z,1011.36
2019-02-06T04:36:29.077Z,1011.32
2019-02-06T04:37:39.171Z,1011.35
2019-02-06T04:38:49.377Z,1011.35
2019-02-06T04:39:59.192Z,1011.37
2019-02-06T04:41:09.258Z,1011.32
2019-02-06T04:42:19.079Z,1011.31
2019-02-06T04:43:29.230Z,1011.3
2019-02-06T04:44:39.479Z,1011.32
2019-02-06T04:45:49.544Z,1011.3
2019-02-06T04:46:59.712Z,1011.32
2019-02-06T04:48:09.534Z,1011.26
2019-02-06T04:49:19.607Z,1011.32
2019-02-06T04:50:29.742Z,1011.32
2019-02-06T04:51:40.140Z,1011.31
2019-02-06T04:52:50.290Z,1011.33
2019-02-06T04:54:01.119Z,1011.33
2019-02-06T04:55:11.772Z,1011.34
2019-02-06T04:56:22.771Z,1011.34
2019-02-06T04:57:33.632Z,1011.34
2019-02-06T04:58:44.408Z,1011.37
2019-02-06T04:59:55.261Z,1011.39
2019-02-06T05:01:06.882Z,1011.35
2019-02-06T05:02:17.172Z,1011.4
2019-02-06T05:03:27.009Z,1011.35
2019-02-06T05:04:37.093Z,1011.39
2019-02-06T05:05:47.194Z,1011.39
2019-02-06T05:06:57.281Z,1011.38
2019-02-06T05:08:19.230Z,1011.41
2019-02-06T05:09:29.301Z,1011.38
2019-02-06T05:10:39.370Z,1011.39
2019-02-06T05:11:49.437Z,1011.4
2019-02-06T05:12:59.016Z,1011.39
2019-02-06T05:14:09.054Z,1011.4
2019-02-06T05:15:19.137Z,1011.4
2019-02-06T05:16:29.224Z,1011.41
2019-02-06T05:17:39.287Z,1011.38
2019-02-06T05:18:49.245Z,1011.4
2019-02-06T05:19:59.471Z,1011.4
2019-02-06T05:21:09.295Z,1011.48
2019-02-06T05:22:19.118Z,1011.48
2019-02-06T05:23:29.192Z,1011.45
2019-02-06T05:24:39.266Z,1011.49
2019-02-06T05:25:49.447Z,1011.5
2019-02-06T05:26:59.319Z,1011.53
2019-02-06T05:28:09.399Z,1011.48
2019-02-06T05:29:20.924Z,1011.48
2019-02-06T05:30:31.038Z,1011.55
2019-02-06T05:31:41.137Z,1011.54
2019-02-06T05:32:51.218Z,1011.53
2019-02-06T05:34:01.606Z,1011.56
2019-02-06T05:35:11.448Z,1011.55
2019-02-06T05:36:21.280Z,1011.54
2019-02-06T05:37:32.447Z,1011.57
2019-02-06T05:38:42.593Z,1011.58
2019-02-06T05:39:52.717Z,1011.59
2019-02-06T05:41:02.535Z,1011.6
2019-02-06T05:42:12.380Z,1011.59
2019-02-06T05:43:22.544Z,1011.57
2019-02-06T05:44:32.375Z,1011.61
2019-02-06T05:45:42.488Z,1011.59
2019-02-06T05:46:52.589Z,1011.6
2019-02-06T05:48:02.715Z,1011.67
2019-02-06T05:49:12.840Z,1011.65
2019-02-06T05:50:22.920Z,1011.68
2019-02-06T05:51:32.752Z,1011.63
2019-02-06T05:52:42.701Z,1011.67
2019-02-06T05:53:52.790Z,1011.61
2019-02-06T05:55:04.624Z,1011.64
2019-02-06T05:56:15.321Z,1011.63
2019-02-06T05:57:25.419Z,1011.64
2019-02-06T05:58:35.576Z,1011.68
2019-02-06T05:59:46.510Z,1011.71
2019-02-06T06:00:57.470Z,1011.66
2019-02-06T06:02:08.313Z,1011.64
2019-02-06T06:03:19.233Z,1011.71
2019-02-06T06:04:29.952Z,1011.7
2019-02-06T06:05:40.414Z,1011.74
2019-02-06T06:06:51.084Z,1011.74
2019-02-06T06:08:01.375Z,1011.83
2019-02-06T06:09:11.483Z,1011.8
2019-02-06T06:10:21.286Z,1011.81
2019-02-06T06:11:31.154Z,1011.74
2019-02-06T06:12:41.016Z,1011.77
2019-02-06T06:13:51.122Z,1011.78
2019-02-06T06:15:01.575Z,1011.8
2019-02-06T06:16:11.406Z,1011.8
2019-02-06T06:17:21.250Z,1011.82
2019-02-06T06:18:31.353Z,1011.83
2019-02-06T06:19:41.182Z,1011.82
2019-02-06T06:20:51.274Z,1011.84
2019-02-06T06:22:01.342Z,1011.83
2019-02-06T06:23:11.413Z,1011.88
2019-02-06T06:24:21.583Z,1011.92
2019-02-06T06:25:31.679Z,1011.91
2019-02-06T06:26:41.757Z,1011.9
2019-02-06T06:27:51.851Z,1011.97
2019-02-06T06:29:02.777Z,1011.96
2019-02-06T06:30:12.978Z,1011.98
2019-02-06T06:31:23.065Z,1012.03
2019-02-06T06:32:32.908Z,1012.01
2019-02-06T06:33:42.758Z,1012.01
2019-02-06T06:34:52.830Z,1012.06
2019-02-06T06:36:03.066Z,1012.09
2019-02-06T06:37:13.160Z,1012.09
2019-02-06T06:38:23.234Z,1012.09
2019-02-06T06:39:33.049Z,1012.1
2019-02-06T06:40:43.154Z,1012.13
2019-02-06T06:41:52.988Z,1012.17
2019-02-06T06:43:03.129Z,1012.18
2019-02-06T06:44:16.727Z,1012.19
2019-02-06T06:45:26.817Z,1012.22
2019-02-06T06:46:36.641Z,1012.19
2019-02-06T06:47:46.723Z,1012.25
2019-02-06T06:48:56.806Z,1012.27
2019-02-06T06:50:06.893Z,1012.28
2019-02-06T06:51:16.969Z,1012.3
2019-02-06T06:52:27.048Z,1012.25
2019-02-06T06:53:36.975Z,1012.25
2019-02-06T06:54:47.043Z,1012.24
2019-02-06T06:55:57.109Z,1012.31
2019-02-06T06:57:06.923Z,1012.31
2019-02-06T06:58:20.155Z,1012.29
2019-02-06T06:59:30.242Z,1012.29
2019-02-06T07:00:40.462Z,1012.29
2019-02-06T07:01:50.651Z,1012.29
2019-02-06T07:03:00.831Z,1012.33
2019-02-06T07:04:10.637Z,1012.28
2019-02-06T07:05:20.761Z,1012.35
2019-02-06T07:06:30.972Z,1012.34
2019-02-06T07:07:41.158Z,1012.34
2019-02-06T07:08:51.699Z,1012.38
2019-02-06T07:10:02.796Z,1012.37
2019-02-06T07:11:15.683Z,1012.4
2019-02-06T07:12:26.155Z,1012.4
2019-02-06T07:13:37.199Z,1012.42
2019-02-06T07:14:47.660Z,1012.43
2019-02-06T07:16:00.285Z,1012.42
2019-02-06T07:17:10.577Z,1012.42
2019-02-06T07:18:20.663Z,1012.45
2019-02-06T07:19:30.750Z,1012.49
2019-02-06T07:20:40.823Z,1012.37
2019-02-06T07:21:50.639Z,1012.37
2019-02-06T07:23:00.736Z,1012.38
2019-02-06T07:24:10.942Z,1012.32
2019-02-06T07:25:21.033Z,1012.32
2019-02-06T07:26:30.869Z,1012.35
2019-02-06T07:27:40.991Z,1012.3
2019-02-06T07:28:51.106Z,1012.35
2019-02-06T07:30:02.715Z,1012.28
2019-02-06T07:31:12.793Z,1012.29
2019-02-06T07:32:22.617Z,1012.34
2019-02-06T07:33:32.830Z,1012.34
2019-02-06T07:34:42.767Z,1012.37
2019-02-06T07:35:52.850Z,1012.34
2019-02-06T07:37:03.371Z,1012.36
2019-02-06T07:38:23.819Z,1012.38
2019-02-06T07:39:34.432Z,1012.34
2019-02-06T07:40:44.517Z,1012.4
2019-02-06T07:41:54.591Z,1012.47
2019-02-06T07:43:04.184Z,1012.46
2019-02-06T07:44:14.256Z,1012.39
2019-02-06T07:45:24.077Z,1012.44
2019-02-06T07:46:34.140Z,1012.41
2019-02-06T07:47:44.224Z,1012.42
2019-02-06T07:48:54.319Z,1012.41
2019-02-06T07:50:04.467Z,1012.38
2019-02-06T07:51:14.530Z,1012.32
2019-02-06T07:52:24.587Z,1012.36
2019-02-06T07:53:34.686Z,1012.31
2019-02-06T07:54:44.771Z,1012.3
2019-02-06T07:55:54.638Z,1012.26
2019-02-06T07:57:04.707Z,1012.31
2019-02-06T07:58:14.791Z,1012.31
2019-02-06T07:59:24.889Z,1012.32
2019-02-06T08:00:34.979Z,1012.31
2019-02-06T08:01:45.093Z,1012.39
2019-02-06T08:02:55.188Z,1012.37
2019-02-06T08:04:05.041Z,1012.35
2019-02-06T08:05:15.111Z,1012.35
2019-02-06T08:06:25.520Z,1012.36
2019-02-06T08:07:36.074Z,1012.42
2019-02-06T08:08:46.652Z,1012.4
2019-02-06T08:09:57.600Z,1012.34
2019-02-06T08:11:08.167Z,1012.39
2019-02-06T08:12:19.000Z,1012.4
2019-02-06T08:13:30.003Z,1012.36
2019-02-06T08:14:40.421Z,1012.42
2019-02-06T08:15:51.010Z,1012.44
2019-02-06T08:17:02.027Z,1012.4
2019-02-06T08:18:12.228Z,1012.45
2019-02-06T08:19:22.053Z,1012.49
2019-02-06T08:20:32.133Z,1012.43
2019-02-06T08:21:42.227Z,1012.43
2019-02-06T08:22:55.152Z,1012.47
2019-02-06T08:24:05.227Z,1012.48
2019-02-06T08:25:15.091Z,1012.51
2019-02-06T08:26:25.213Z,1012.51
2019-02-06T08:27:34.793Z,1012.52
2019-02-06T08:28:44.863Z,1012.47
2019-02-06T08:29:54.698Z,1012.51
2019-02-06T08:31:04.559Z,1012.46
2019-02-06T08:32:14.646Z,1012.47
2019-02-06T08:33:24.698Z,1012.45
2019-02-06T08:34:34.537Z,1012.52
2019-02-06T08:35:44.647Z,1012.47
2019-02-06T08:36:54.750Z,1012.52
2019-02-06T08:38:04.835Z,1012.51
2019-02-06T08:39:14.937Z,1012.48
2019-02-06T08:40:25.002Z,1012.56
2019-02-06T08:41:35.084Z,1012.6
2019-02-06T08:42:45.179Z,1012.51
2019-02-06T08:43:55.423Z,1012.47
2019-02-06T08:45:07.263Z,1012.46
2019-02-06T08:46:17.389Z,1012.44
2019-02-06T08:47:27.258Z,1012.48
2019-02-06T08:48:37.113Z,1012.53
2019-02-06T08:49:47.186Z,1012.59
2019-02-06T08:50:57.258Z,1012.52
2019-02-06T08:52:07.346Z,1012.53
2019-02-06T08:53:17.209Z,1012.59
2019-02-06T08:54:27.300Z,1012.56
2019-02-06T08:55:37.391Z,1012.63
2019-02-06T08:56:47.517Z,1012.62
2019-02-06T08:57:57.338Z,1012.62
2019-02-06T08:59:07.511Z,1012.63
2019-02-06T09:00:17.590Z,1012.65
2019-02-06T09:01:27.599Z,1012.63
2019-02-06T09:02:37.422Z,1012.66
2019-02-06T09:03:47.241Z,1012.61
2019-02-06T09:04:57.304Z,1012.64
2019-02-06T09:06:10.486Z,1012.66
2019-02-06T09:07:20.058Z,1012.69
2019-02-06T09:08:30.141Z,1012.69
2019-02-06T09:09:40.231Z,1012.68
2019-02-06T09:10:51.857Z,1012.75
2019-02-06T09:12:01.990Z,1012.71
2019-02-06T09:13:12.401Z,1012.67
2019-02-06T09:14:22.688Z,1012.66
2019-02-06T09:15:33.444Z,1012.7
2019-02-06T09:16:44.142Z,1012.7
2019-02-06T09:17:54.667Z,1012.67
2019-02-06T09:19:05.338Z,1012.65
2019-02-06T09:20:15.950Z,1012.67
2019-02-06T09:21:25.824Z,1012.67
2019-02-06T09:22:36.110Z,1012.66
2019-02-06T09:23:46.407Z,1012.67
2019-02-06T09:24:56.674Z,1012.63
2019-02-06T09:26:06.846Z,1012.64
2019-02-06T09:27:16.945Z,1012.64
2019-02-06T09:28:27.034Z,1012.7
2019-02-06T09:29:40.239Z,1012.72
2019-02-06T09:30:50.341Z,1012.71
2019-02-06T09:32:00.422Z,1012.69
2019-02-06T09:33:10.506Z,1012.7
2019-02-06T09:34:20.565Z,1012.65
2019-02-06T09:35:30.625Z,1012.73
2019-02-06T09:36:40.556Z,1012.72
2019-02-06T09:37:50.638Z,1012.71
2019-02-06T09:39:11.081Z,1012.73
2019-02-06T09:40:21.765Z,1012.74
2019-02-06T09:41:31.899Z,1012.74
2019-02-06T09:42:41.968Z,1012.74
2019-02-06T09:43:52.052Z,1012.8
2019-02-06T09:45:02.160Z,1012.81
2019-02-06T09:46:12.260Z,1012.83
2019-02-06T09:47:22.106Z,1012.76
2019-02-06T09:48:31.926Z,1012.83
2019-02-06T09:49:42.031Z,1012.81
2019-02-06T09:50:55.130Z,1012.78
2019-02-06T09:52:04.970Z,1012.84
2019-02-06T09:53:15.103Z,1012.8
2019-02-06T09:54:24.966Z,1012.83
2019-02-06T09:55:35.054Z,1012.82
2019-02-06T09:56:45.175Z,1012.76
2019-02-06T09:57:58.376Z,1012.82
2019-02-06T09:59:09.323Z,1012.78
2019-02-06T10:00:19.631Z,1012.79
2019-02-06T10:01:29.623Z,1012.81
2019-02-06T10:02:39.687Z,1012.79
2019-02-06T10:03:50.164Z,1012.86
2019-02-06T10:05:00.531Z,1012.82
2019-02-06T10:06:11.415Z,1012.83
2019-02-06T10:07:22.023Z,1012.81
2019-02-06T10:08:32.714Z,1012.8
2019-02-06T10:09:43.180Z,1012.84
2019-02-06T10:10:53.972Z,1012.78
2019-02-06T10:12:04.808Z,1012.77
2019-02-06T10:13:17.455Z,1012.76
2019-02-06T10:14:27.720Z,1012.78
2019-02-06T10:15:37.904Z,1012.76
2019-02-06T10:16:48.104Z,1012.73
2019-02-06T10:17:58.173Z,1012.67
2019-02-06T10:19:08.901Z,1012.68
2019-02-06T10:20:18.755Z,1012.65
2019-02-06T10:21:28.852Z,1012.66
2019-02-06T10:22:39.004Z,1012.62
2019-02-06T10:23:49.085Z,1012.61
2019-02-06T10:24:58.913Z,1012.58
2019-02-06T10:26:09.004Z,1012.65
2019-02-06T10:27:19.094Z,1012.61
2019-02-06T10:28:31.887Z,1012.58
2019-02-06T10:29:41.808Z,1012.58
2019-02-06T10:30:51.387Z,1012.52
2019-02-06T10:32:01.514Z,1012.55
2019-02-06T10:33:11.369Z,1012.54
2019-02-06T10:34:24.143Z,1012.56
2019-02-06T10:35:34.229Z,1012.45
2019-02-06T10:36:44.314Z,1012.47
2019-02-06T10:37:54.124Z,1012.48
2019-02-06T10:39:04.206Z,1012.44
2019-02-06T10:40:14.085Z,1012.41
2019-02-06T10:41:24.256Z,1012.44
2019-02-06T10:42:34.112Z,1012.39
2019-02-06T10:43:44.195Z,1012.35
2019-02-06T10:44:54.040Z,1012.37
2019-02-06T10:46:03.858Z,1012.36
2019-02-06T10:47:13.956Z,1012.31
2019-02-06T10:48:23.830Z,1012.28
2019-02-06T10:49:33.663Z,1012.27
2019-02-06T10:50:43.225Z,1012.28
2019-02-06T10:51:53.368Z,1012.27
2019-02-06T10:53:04.853Z,1012.28
2019-02-06T10:54:14.821Z,1012.26
2019-02-06T10:55:24.943Z,1012.21
2019-02-06T10:56:35.023Z,1012.19
2019-02-06T10:57:44.835Z,1012.16
2019-02-06T10:58:54.447Z,1012.16
2019-02-06T11:00:04.471Z,1012.16
2019-02-06T11:01:14.875Z,1012.14
2019-02-06T11:02:24.962Z,1012.08
2019-02-06T11:03:37.396Z,1012.1
2019-02-06T11:04:47.491Z,1012.07
2019-02-06T11:05:57.318Z,1012.05
2019-02-06T11:07:08.164Z,1012
2019-02-06T11:08:18.832Z,1012.01
2019-02-06T11:09:28.965Z,1011.96
2019-02-06T11:10:49.270Z,1011.94
2019-02-06T11:11:59.391Z,1011.97
2019-02-06T11:13:09.159Z,1011.92
2019-02-06T11:14:19.432Z,1011.91
2019-02-06T11:15:29.492Z,1011.9
2019-02-06T11:16:39.589Z,1011.87
2019-02-06T11:17:49.690Z,1011.89
2019-02-06T11:18:59.769Z,1011.85
2019-02-06T11:20:09.896Z,1011.83
2019-02-06T11:21:19.976Z,1011.81
2019-02-06T11:22:30.052Z,1011.78
2019-02-06T11:23:40.155Z,1011.79
2019-02-06T11:24:50.245Z,1011.75
2019-02-06T11:26:00.451Z,1011.75
2019-02-06T11:27:10.536Z,1011.73
2019-02-06T11:28:20.366Z,1011.73
2019-02-06T11:29:29.936Z,1011.71
2019-02-06T11:30:40.022Z,1011.73
2019-02-06T11:31:49.860Z,1011.71
2019-02-06T11:32:59.716Z,1011.73
2019-02-06T11:34:09.789Z,1011.72
2019-02-06T11:35:19.610Z,1011.68
2019-02-06T11:36:29.927Z,1011.67
2019-02-06T11:37:39.495Z,1011.63
2019-02-06T11:38:49.582Z,1011.66
2019-02-06T11:39:59.729Z,1011.6
2019-02-06T11:41:09.819Z,1011.64
2019-02-06T11:42:19.665Z,1011.55
2019-02-06T11:43:31.973Z,1011.63
2019-02-06T11:44:42.369Z,1011.59
2019-02-06T11:45:52.457Z,1011.6
2019-02-06T11:47:02.553Z,1011.58
2019-02-06T11:48:12.629Z,1011.53
2019-02-06T11:49:22.511Z,1011.56
2019-02-06T11:50:32.609Z,1011.47
2019-02-06T11:51:42.444Z,1011.47
2019-02-06T11:52:52.291Z,1011.46
2019-02-06T11:54:02.422Z,1011.47
2019-02-06T11:55:12.550Z,1011.47
2019-02-06T11:56:22.652Z,1011.49
2019-02-06T11:57:32.728Z,1011.53
2019-02-06T11:58:42.809Z,1011.53
2019-02-06T11:59:53.117Z,1011.46
2019-02-06T12:01:03.510Z,1011.47
2019-02-06T12:02:13.611Z,1011.53
2019-02-06T12:03:23.714Z,1011.37
2019-02-06T12:04:33.788Z,1011.36
2019-02-06T12:05:43.884Z,1011.33
2019-02-06T12:06:53.771Z,1011.37
2019-02-06T12:08:03.866Z,1011.29
2019-02-06T12:09:16.465Z,1011.26
2019-02-06T12:10:26.937Z,1011.24
2019-02-06T12:11:37.730Z,1011.2
2019-02-06T12:12:48.420Z,1011.2
2019-02-06T12:13:59.149Z,1011.2
2019-02-06T12:15:09.788Z,1011.24
2019-02-06T12:16:20.756Z,1011.21
2019-02-06T12:17:31.985Z,1011.17
2019-02-06T12:18:42.508Z,1011.14
2019-02-06T12:19:52.830Z,1011.15
2019-02-06T12:21:03.062Z,1011.1
2019-02-06T12:22:13.087Z,1011.15
2019-02-06T12:23:31.774Z,1011.07
2019-02-06T12:24:41.883Z,1011.11
2019-02-06T12:25:51.703Z,1011.08
2019-02-06T12:27:01.286Z,1011.06
2019-02-06T12:28:11.356Z,1011.07
2019-02-06T12:29:21.180Z,1011.03
2019-02-06T12:30:31.011Z,1011.01
2019-02-06T12:31:40.853Z,1011
2019-02-06T12:32:52.079Z,1011.01
2019-02-06T12:34:02.450Z,1010.99
2019-02-06T12:35:12.538Z,1011.02
2019-02-06T12:36:22.399Z,1010.98
2019-02-06T12:37:32.611Z,1011.01
2019-02-06T12:38:52.633Z,1010.99
2019-02-06T12:40:03.159Z,1010.97
2019-02-06T12:41:24.030Z,1010.97
2019-02-06T12:42:33.858Z,1010.99
2019-02-06T12:43:43.941Z,1010.97
2019-02-06T12:44:54.043Z,1010.95
2019-02-06T12:46:06.719Z,1010.96
2019-02-06T12:47:16.319Z,1010.98
2019-02-06T12:48:27.452Z,1010.94
2019-02-06T12:49:37.555Z,1010.92
2019-02-06T12:50:47.669Z,1010.91
2019-02-06T12:51:57.336Z,1010.89
2019-02-06T12:53:07.184Z,1010.84
2019-02-06T12:54:17.036Z,1010.81
2019-02-06T12:55:27.135Z,1010.86
2019-02-06T12:56:37.232Z,1010.81
2019-02-06T12:57:47.336Z,1010.85
2019-02-06T12:58:57.233Z,1010.81
2019-02-06T13:00:07.259Z,1010.78
2019-02-06T13:01:17.516Z,1010.77
2019-02-06T13:02:27.669Z,1010.75
2019-02-06T13:03:37.740Z,1010.81
2019-02-06T13:04:47.879Z,1010.79
2019-02-06T13:05:57.738Z,1010.75
2019-02-06T13:07:07.820Z,1010.72
2019-02-06T13:08:18.186Z,1010.76
2019-02-06T13:09:28.382Z,1010.67
2019-02-06T13:10:39.269Z,1010.75
2019-02-06T13:11:49.974Z,1010.7
2019-02-06T13:13:01.271Z,1010.63
2019-02-06T13:14:12.284Z,1010.66
2019-02-06T13:15:23.130Z,1010.61
2019-02-06T13:16:33.880Z,1010.59
2019-02-06T13:17:44.207Z,1010.53
2019-02-06T13:18:54.430Z,1010.56
2019-02-06T13:20:04.233Z,1010.47
2019-02-06T13:21:14.348Z,1010.49
2019-02-06T13:22:24.437Z,1010.44
2019-02-06T13:23:34.273Z,1010.45
2019-02-06T13:24:44.634Z,1010.38
2019-02-06T13:25:54.875Z,1010.42
2019-02-06T13:27:04.953Z,1010.38
2019-02-06T13:28:15.032Z,1010.35
2019-02-06T13:29:24.884Z,1010.4
2019-02-06T13:30:34.972Z,1010.39
2019-02-06T13:31:45.072Z,1010.41
2019-02-06T13:32:55.130Z,1010.3
2019-02-06T13:34:05.223Z,1010.36
2019-02-06T13:35:15.049Z,1010.32
2019-02-06T13:36:25.145Z,1010.37
2019-02-06T13:37:35.209Z,1010.37
2019-02-06T13:38:45.035Z,1010.39
2019-02-06T13:39:55.137Z,1010.38
2019-02-06T13:41:05.220Z,1010.31
2019-02-06T13:42:15.061Z,1010.34
2019-02-06T13:43:25.178Z,1010.36
2019-02-06T13:44:35.023Z,1010.32
2019-02-06T13:45:46.713Z,1010.26
2019-02-06T13:46:56.548Z,1010.24
2019-02-06T13:48:06.631Z,1010.21
2019-02-06T13:49:16.726Z,1010.19
2019-02-06T13:50:26.592Z,1010.23
2019-02-06T13:51:36.675Z,1010.23
2019-02-06T13:52:46.492Z,1010.2
2019-02-06T13:53:56.582Z,1010.17
2019-02-06T13:55:06.693Z,1010.15
2019-02-06T13:56:19.786Z,1010.11
2019-02-06T13:57:33.653Z,1010.08
2019-02-06T13:58:43.991Z,1010.1
2019-02-06T13:59:54.080Z,1010
2019-02-06T14:01:04.588Z,1009.95
2019-02-06T14:02:26.105Z,1009.94
2019-02-06T14:03:36.979Z,1009.91
2019-02-06T14:04:47.527Z,1009.9
2019-02-06T14:05:58.320Z,1009.94
2019-02-06T14:07:11.913Z,1009.93
2019-02-06T14:08:22.022Z,1009.92
2019-02-06T14:09:32.089Z,1009.93
2019-02-06T14:10:42.192Z,1009.91
2019-02-06T14:12:06.530Z,1009.89
2019-02-06T14:13:18.911Z,1009.95
2019-02-06T14:14:29.009Z,1009.97
2019-02-06T14:15:39.150Z,1009.93
2019-02-06T14:16:49.366Z,1009.92
2019-02-06T14:17:59.214Z,1009.92
2019-02-06T14:19:09.391Z,1009.95
2019-02-06T14:20:19.531Z,1009.87
2019-02-06T14:21:29.368Z,1009.84
2019-02-06T14:22:39.203Z,1009.89
2019-02-06T14:23:49.022Z,1009.89
2019-02-06T14:24:58.879Z,1009.87
2019-02-06T14:26:08.989Z,1009.86
2019-02-06T14:27:22.058Z,1009.84
2019-02-06T14:28:32.139Z,1009.86
2019-02-06T14:29:52.596Z,1009.77
2019-02-06T14:31:03.097Z,1009.77
2019-02-06T14:32:16.282Z,1009.78
2019-02-06T14:33:28.727Z,1009.79
2019-02-06T14:34:39.111Z,1009.75
2019-02-06T14:35:49.914Z,1009.77
2019-02-06T14:37:00.483Z,1009.81
2019-02-06T14:38:10.961Z,1009.78
2019-02-06T14:39:21.140Z,1009.73
2019-02-06T14:40:30.956Z,1009.77
2019-02-06T14:41:41.046Z,1009.8
2019-02-06T14:42:51.116Z,1009.73
2019-02-06T14:44:01.203Z,1009.76
2019-02-06T14:45:11.292Z,1009.71
2019-02-06T14:46:21.105Z,1009.72